createdAt,value
2017-07-26T00:00:37.886Z,98136.20
2017-07-26T00:03:06.268Z,98131.77
2017-07-26T00:05:34.248Z,98137.96
2017-07-26T00:08:01.701Z,98135.02
2017-07-26T00:10:29.170Z,98130.00
2017-07-26T00:12:56.641Z,98132.95
2017-07-26T00:15:24.168Z,98131.77
2017-07-26T00:17:51.608Z,98134.08
2017-07-26T00:20:19.108Z,98136.14
2017-07-26T00:22:46.559Z,98136.02
2017-07-26T00:25:14.035Z,98146.86
2017-07-26T00:27:41.518Z,98153.94
2017-07-26T00:30:09.328Z,98157.19
2017-07-26T00:32:36.800Z,98156.90
2017-07-26T00:35:04.236Z,98158.77
2017-07-26T00:37:31.793Z,98155.82
2017-07-26T00:39:59.281Z,98156.14
2017-07-26T00:42:26.782Z,98162.53
2017-07-26T00:44:54.246Z,98163.09
2017-07-26T00:47:22.742Z,98164.56
2017-07-26T00:49:50.259Z,98168.58
2017-07-26T00:52:17.704Z,98172.64
2017-07-26T00:54:45.178Z,98176.45
2017-07-26T00:57:12.636Z,98173.18
2017-07-26T00:59:40.122Z,98169.66
2017-07-26T01:02:07.588Z,98178.95
2017-07-26T01:04:35.065Z,98183.53
2017-07-26T01:07:02.522Z,98188.89
2017-07-26T01:09:30.698Z,98185.42
2017-07-26T01:11:58.148Z,98186.92
2017-07-26T01:14:25.599Z,98189.86
2017-07-26T01:16:53.082Z,98184.11
2017-07-26T01:19:20.542Z,98191.62
2017-07-26T01:21:48.025Z,98190.59
2017-07-26T01:24:15.487Z,98195.59
2017-07-26T01:26:42.973Z,98197.49
2017-07-26T01:29:10.436Z,98192.89
2017-07-26T01:31:37.953Z,98199.31
2017-07-26T01:34:05.412Z,98196.78
2017-07-26T01:36:32.906Z,98201.86
2017-07-26T01:39:00.379Z,98208.15
2017-07-26T01:41:27.832Z,98204.28
2017-07-26T01:43:55.321Z,98204.75
2017-07-26T01:46:22.770Z,98201.00
2017-07-26T01:48:50.257Z,98201.22
2017-07-26T01:51:17.716Z,98199.04
2017-07-26T01:53:45.202Z,98193.55
2017-07-26T01:56:12.655Z,98199.02
2017-07-26T01:58:40.137Z,98205.05
2017-07-26T02:01:07.686Z,98208.38
2017-07-26T02:03:35.452Z,98207.09
2017-07-26T02:06:02.916Z,98209.30
2017-07-26T02:08:30.371Z,98204.84
2017-07-26T02:10:57.854Z,98206.75
2017-07-26T02:13:25.310Z,98199.77
2017-07-26T02:15:52.802Z,98202.53
2017-07-26T02:18:20.263Z,98201.66
2017-07-26T02:20:47.733Z,98201.27
2017-07-26T02:23:15.283Z,98205.06
2017-07-26T02:25:42.755Z,98210.17
2017-07-26T02:28:10.211Z,98216.73
2017-07-26T02:30:37.661Z,98218.89
2017-07-26T02:33:05.142Z,98220.21
2017-07-26T02:35:32.594Z,98221.12
2017-07-26T02:38:00.065Z,98221.72
2017-07-26T02:40:27.510Z,98221.61
2017-07-26T02:42:55.080Z,98229.06
2017-07-26T02:45:22.537Z,98229.97
2017-07-26T02:47:50.014Z,98229.18
2017-07-26T02:50:17.656Z,98234.91
2017-07-26T02:52:45.155Z,98234.14
2017-07-26T02:55:12.631Z,98233.98
2017-07-26T02:57:40.086Z,98237.17
2017-07-26T03:00:07.577Z,98241.33
2017-07-26T03:02:35.033Z,98238.41
2017-07-26T03:05:02.696Z,98234.12
2017-07-26T03:07:30.149Z,98231.28
2017-07-26T03:09:57.637Z,98234.54
2017-07-26T03:12:25.735Z,98237.09
2017-07-26T03:14:53.216Z,98233.00
2017-07-26T03:17:20.702Z,98234.54
2017-07-26T03:19:48.763Z,98230.42
2017-07-26T03:22:16.273Z,98239.28
2017-07-26T03:24:43.713Z,98239.48
2017-07-26T03:27:11.682Z,98239.34
2017-07-26T03:29:39.160Z,98235.61
2017-07-26T03:32:06.649Z,98234.01
2017-07-26T03:34:34.446Z,98237.69
2017-07-26T03:37:01.928Z,98233.59
2017-07-26T03:39:29.381Z,98238.81
2017-07-26T03:41:56.866Z,98233.76
2017-07-26T03:44:24.356Z,98236.59
2017-07-26T03:46:51.826Z,98236.59
2017-07-26T03:49:19.320Z,98239.20
2017-07-26T03:51:46.802Z,98238.33
2017-07-26T03:54:14.300Z,98239.98
2017-07-26T03:56:41.761Z,98237.85
2017-07-26T03:59:09.266Z,98247.69
2017-07-26T04:01:36.726Z,98250.98
2017-07-26T04:04:04.194Z,98247.95
2017-07-26T04:06:31.657Z,98247.13
2017-07-26T04:08:59.151Z,98249.77
2017-07-26T04:11:26.611Z,98252.80
2017-07-26T04:13:54.074Z,98254.34
2017-07-26T04:16:21.583Z,98255.13
2017-07-26T04:18:49.060Z,98257.53
2017-07-26T04:21:16.553Z,98250.80
2017-07-26T04:23:44.020Z,98261.44
2017-07-26T04:26:11.508Z,98258.13
2017-07-26T04:28:38.961Z,98261.18
2017-07-26T04:31:06.436Z,98256.72
2017-07-26T04:33:33.914Z,98256.50
2017-07-26T04:36:01.374Z,98256.41
2017-07-26T04:38:29.651Z,98254.31
2017-07-26T04:40:57.093Z,98255.01
2017-07-26T04:43:24.545Z,98253.47
2017-07-26T04:45:52.021Z,98265.84
2017-07-26T04:48:19.502Z,98264.66
2017-07-26T04:50:46.957Z,98267.91
2017-07-26T04:53:15.226Z,98267.97
2017-07-26T04:55:42.677Z,98266.03
2017-07-26T04:58:10.442Z,98263.48
2017-07-26T05:00:37.926Z,98262.52
2017-07-26T05:03:05.397Z,98269.78
2017-07-26T05:05:32.899Z,98264.23
2017-07-26T05:08:00.371Z,98264.80
2017-07-26T05:10:27.868Z,98268.58
2017-07-26T05:12:55.350Z,98272.08
2017-07-26T05:15:22.831Z,98273.09
2017-07-26T05:17:50.277Z,98272.58
2017-07-26T05:20:17.777Z,98266.84
2017-07-26T05:22:45.270Z,98268.02
2017-07-26T05:25:12.996Z,98265.30
2017-07-26T05:27:40.451Z,98264.98
2017-07-26T05:30:07.932Z,98267.66
2017-07-26T05:32:35.435Z,98272.84
2017-07-26T05:35:02.891Z,98273.55
2017-07-26T05:37:30.379Z,98275.62
2017-07-26T05:39:57.829Z,98273.55
2017-07-26T05:42:25.317Z,98278.73
2017-07-26T05:44:52.774Z,98277.00
2017-07-26T05:47:20.426Z,98278.56
2017-07-26T05:49:47.926Z,98275.67
2017-07-26T05:52:15.402Z,98281.84
2017-07-26T05:54:42.889Z,98282.41
2017-07-26T05:57:10.381Z,98280.89
2017-07-26T05:59:37.838Z,98282.23
2017-07-26T06:02:06.033Z,98280.08
2017-07-26T06:04:33.497Z,98273.55
2017-07-26T06:07:01.011Z,98277.42
2017-07-26T06:09:28.519Z,98286.08
2017-07-26T06:11:55.965Z,98285.88
2017-07-26T06:14:23.741Z,98285.86
2017-07-26T06:16:51.205Z,98292.84
2017-07-26T06:19:18.859Z,98295.92
2017-07-26T06:21:46.299Z,98295.17
2017-07-26T06:24:13.773Z,98295.95
2017-07-26T06:26:41.685Z,98298.09
2017-07-26T06:29:09.140Z,98302.58
2017-07-26T06:31:36.621Z,98304.03
2017-07-26T06:34:04.066Z,98303.41
2017-07-26T06:36:31.591Z,98307.28
2017-07-26T06:38:59.642Z,98312.53
2017-07-26T06:41:27.130Z,98303.56
2017-07-26T06:46:28.338Z,98315.06
2017-07-26T06:48:56.167Z,98317.69
2017-07-26T06:51:23.645Z,98318.48
2017-07-26T06:53:51.120Z,98314.33
2017-07-26T06:56:18.742Z,98320.11
2017-07-26T06:58:46.239Z,98315.42
2017-07-26T07:01:14.517Z,98328.72
2017-07-26T07:03:42.010Z,98322.94
2017-07-26T07:06:09.463Z,98318.38
2017-07-26T07:08:36.941Z,98323.95
2017-07-26T07:11:04.390Z,98326.12
2017-07-26T07:13:31.911Z,98337.05
2017-07-26T07:15:59.628Z,98334.52
2017-07-26T07:18:27.071Z,98337.77
2017-07-26T07:20:54.576Z,98344.14
2017-07-26T07:23:22.109Z,98350.91
2017-07-26T07:25:49.589Z,98354.69
2017-07-26T07:28:17.050Z,98352.81
2017-07-26T07:33:18.341Z,98360.20
2017-07-26T07:35:45.841Z,98356.20
2017-07-26T07:38:13.359Z,98353.38
2017-07-26T07:40:41.248Z,98354.52
2017-07-26T07:43:08.729Z,98353.73
2017-07-26T07:45:37.091Z,98355.05
2017-07-26T07:48:04.605Z,98361.58
2017-07-26T07:50:32.073Z,98361.78
2017-07-26T07:52:59.537Z,98366.38
2017-07-26T07:55:27.046Z,98367.78
2017-07-26T07:57:54.674Z,98364.47
2017-07-26T08:00:22.132Z,98358.70
2017-07-26T08:02:49.655Z,98354.36
2017-07-26T08:05:17.150Z,98352.89
2017-07-26T08:07:44.603Z,98358.50
2017-07-26T08:10:12.847Z,98363.09
2017-07-26T08:12:40.306Z,98369.23
2017-07-26T08:15:07.793Z,98372.94
2017-07-26T08:17:35.281Z,98373.64
2017-07-26T08:20:02.750Z,98373.77
2017-07-26T08:22:30.226Z,98375.28
2017-07-26T08:24:57.700Z,98378.46
2017-07-26T08:27:25.183Z,98378.43
2017-07-26T08:29:52.692Z,98371.30
2017-07-26T08:32:20.338Z,98373.61
2017-07-26T08:34:47.826Z,98377.11
2017-07-26T08:37:15.321Z,98380.92
2017-07-26T08:39:42.769Z,98379.61
2017-07-26T08:42:10.252Z,98373.41
2017-07-26T08:44:37.723Z,98384.08
2017-07-26T08:47:06.656Z,98383.13
2017-07-26T08:49:34.105Z,98381.16
2017-07-26T08:52:01.843Z,98380.83
2017-07-26T08:54:29.296Z,98378.55
2017-07-26T08:56:56.773Z,98379.96
2017-07-26T08:59:24.495Z,98389.88
2017-07-26T09:01:53.103Z,98394.61
2017-07-26T09:04:21.730Z,98391.88
2017-07-26T09:06:49.208Z,98390.30
2017-07-26T09:09:17.525Z,98392.17
2017-07-26T09:11:45.018Z,98393.33
2017-07-26T09:14:12.684Z,98389.52
2017-07-26T09:16:40.162Z,98392.17
2017-07-26T09:19:07.783Z,98397.29
2017-07-26T09:21:35.235Z,98393.95
2017-07-26T09:24:03.557Z,98398.21
2017-07-26T09:26:31.354Z,98407.67
2017-07-26T09:28:58.840Z,98398.52
2017-07-26T09:31:26.681Z,98407.91
2017-07-26T09:33:54.126Z,98406.85
2017-07-26T09:36:21.583Z,98407.31
2017-07-26T09:38:49.070Z,98406.82
2017-07-26T09:41:16.532Z,98412.83
2017-07-26T09:43:44.203Z,98420.78
2017-07-26T09:46:12.313Z,98426.42
2017-07-26T09:48:39.784Z,98417.81
2017-07-26T09:51:07.540Z,98410.27
2017-07-26T09:53:35.041Z,98403.11
2017-07-26T09:56:02.617Z,98415.95
2017-07-26T09:58:30.087Z,98414.64
2017-07-26T10:00:57.588Z,98415.86
2017-07-26T10:03:25.127Z,98411.42
2017-07-26T10:05:52.805Z,98405.31
2017-07-26T10:08:20.723Z,98411.52
2017-07-26T10:10:48.216Z,98407.34
2017-07-26T10:13:17.544Z,98408.96
2017-07-26T10:15:45.037Z,98405.97
2017-07-26T10:18:12.534Z,98403.44
2017-07-26T10:20:40.951Z,98400.19
2017-07-26T10:23:08.439Z,98398.19
2017-07-26T10:25:36.108Z,98398.05
2017-07-26T10:28:03.812Z,98400.78
2017-07-26T10:30:31.282Z,98402.66
2017-07-26T10:32:58.775Z,98394.84
2017-07-26T10:35:26.226Z,98402.88
2017-07-26T10:37:53.701Z,98401.87
2017-07-26T10:40:21.157Z,98402.48
2017-07-26T10:45:22.453Z,98400.72
2017-07-26T10:47:49.962Z,98393.33
2017-07-26T10:50:17.413Z,98395.11
2017-07-26T10:52:44.922Z,98395.14
2017-07-26T10:55:12.509Z,98398.05
2017-07-26T10:57:40.021Z,98392.77
2017-07-26T11:00:08.387Z,98402.63
2017-07-26T11:02:35.829Z,98400.45
2017-07-26T11:05:03.345Z,98410.47
2017-07-26T11:07:31.011Z,98418.94
2017-07-26T11:09:58.538Z,98409.52
2017-07-26T11:12:26.755Z,98417.40
2017-07-26T11:14:54.249Z,98423.17
2017-07-26T11:17:22.580Z,98422.16
2017-07-26T11:19:50.053Z,98428.89
2017-07-26T11:22:17.844Z,98422.65
2017-07-26T11:24:45.321Z,98423.61
2017-07-26T11:27:12.804Z,98426.39
2017-07-26T11:29:40.342Z,98426.09
2017-07-26T11:32:07.834Z,98421.14
2017-07-26T11:34:35.298Z,98418.81
2017-07-26T11:37:02.793Z,98413.98
2017-07-26T11:39:30.261Z,98417.03
2017-07-26T11:41:57.761Z,98421.14
2017-07-26T11:44:25.251Z,98421.50
2017-07-26T11:46:52.698Z,98423.67
2017-07-26T11:49:20.174Z,98428.13
2017-07-26T11:51:47.628Z,98433.13
2017-07-26T11:54:15.104Z,98427.28
2017-07-26T11:56:42.606Z,98427.58
2017-07-26T11:59:10.092Z,98421.77
2017-07-26T12:01:37.566Z,98417.39
2017-07-26T12:04:05.248Z,98418.15
2017-07-26T12:06:33.140Z,98415.09
2017-07-26T12:09:00.819Z,98418.91
2017-07-26T12:11:28.273Z,98424.36
2017-07-26T12:13:55.737Z,98429.73
2017-07-26T12:16:23.598Z,98429.78
2017-07-26T12:18:51.073Z,98439.72
2017-07-26T12:21:18.558Z,98431.19
2017-07-26T12:23:46.151Z,98436.05
2017-07-26T12:26:13.669Z,98431.35
2017-07-26T12:28:41.146Z,98434.23
2017-07-26T12:31:08.593Z,98430.95
2017-07-26T12:33:36.081Z,98430.80
2017-07-26T12:36:03.652Z,98429.81
2017-07-26T12:38:31.133Z,98434.27
2017-07-26T12:40:58.923Z,98436.97
2017-07-26T12:43:26.418Z,98435.66
2017-07-26T12:45:53.899Z,98433.22
2017-07-26T12:48:21.383Z,98426.06
2017-07-26T12:50:48.874Z,98429.88
2017-07-26T12:53:16.343Z,98416.80
2017-07-26T12:55:43.819Z,98415.91
2017-07-26T12:58:11.338Z,98425.70
2017-07-26T13:00:38.843Z,98426.69
2017-07-26T13:03:06.308Z,98425.24
2017-07-26T13:05:33.816Z,98426.06
2017-07-26T13:08:01.288Z,98416.87
2017-07-26T13:10:28.835Z,98418.58
2017-07-26T13:12:56.388Z,98420.52
2017-07-26T13:15:24.434Z,98419.13
2017-07-26T13:17:51.953Z,98418.02
2017-07-26T13:20:19.426Z,98416.27
2017-07-26T13:22:46.954Z,98414.92
2017-07-26T13:25:14.397Z,98414.92
2017-07-26T13:27:42.182Z,98419.16
2017-07-26T13:30:09.660Z,98423.70
2017-07-26T13:32:37.164Z,98422.34
2017-07-26T13:35:04.654Z,98415.39
2017-07-26T13:37:32.125Z,98420.70
2017-07-26T13:39:59.605Z,98408.20
2017-07-26T13:42:27.060Z,98412.10
2017-07-26T13:44:54.559Z,98407.24
2017-07-26T13:47:22.032Z,98407.23
2017-07-26T13:49:49.514Z,98403.93
2017-07-26T13:52:16.970Z,98412.62
2017-07-26T13:54:44.682Z,98415.22
2017-07-26T13:57:12.358Z,98414.16
2017-07-26T13:59:39.806Z,98414.96
2017-07-26T14:02:07.556Z,98414.41
2017-07-26T14:04:35.013Z,98408.45
2017-07-26T14:07:02.471Z,98399.59
2017-07-26T14:09:29.942Z,98397.03
2017-07-26T14:11:57.420Z,98396.90
2017-07-26T14:14:24.892Z,98395.13
2017-07-26T14:16:52.435Z,98397.29
2017-07-26T14:19:19.888Z,98399.03
2017-07-26T14:21:47.382Z,98403.66
2017-07-26T14:24:14.842Z,98395.64
2017-07-26T14:26:42.802Z,98402.41
2017-07-26T14:29:10.277Z,98398.67
2017-07-26T14:31:37.886Z,98394.33
2017-07-26T14:34:05.433Z,98396.93
2017-07-26T14:36:32.886Z,98397.41
2017-07-26T14:39:00.366Z,98405.89
2017-07-26T14:41:27.874Z,98416.27
2017-07-26T14:43:55.370Z,98410.98
2017-07-26T14:46:22.955Z,98408.78
2017-07-26T14:48:50.456Z,98407.46
2017-07-26T14:51:17.943Z,98410.98
2017-07-26T14:53:45.426Z,98417.13
2017-07-26T14:56:13.483Z,98419.16
2017-07-26T14:58:41.095Z,98407.06
2017-07-26T15:01:09.153Z,98410.48
2017-07-26T15:03:36.632Z,98412.03
2017-07-26T15:06:04.131Z,98409.20
2017-07-26T15:08:31.611Z,98401.88
2017-07-26T15:10:59.163Z,98402.77
2017-07-26T15:13:26.624Z,98399.55
2017-07-26T15:15:54.262Z,98398.37
2017-07-26T15:18:21.780Z,98399.97
2017-07-26T15:20:49.234Z,98402.60
2017-07-26T15:23:16.763Z,98405.22
2017-07-26T15:25:44.246Z,98401.31
2017-07-26T15:28:11.747Z,98406.31
2017-07-26T15:30:39.214Z,98404.05
2017-07-26T15:33:06.751Z,98400.79
2017-07-26T15:35:34.240Z,98401.77
2017-07-26T15:38:01.745Z,98401.21
2017-07-26T15:40:29.239Z,98398.27
2017-07-26T15:42:56.744Z,98407.13
2017-07-26T15:45:24.237Z,98405.05
2017-07-26T15:47:51.693Z,98411.71
2017-07-26T15:52:53.490Z,98402.81
2017-07-26T15:55:20.993Z,98412.14
2017-07-26T15:57:48.462Z,98410.70
2017-07-26T16:00:15.948Z,98405.09
2017-07-26T16:02:43.429Z,98406.58
2017-07-26T16:05:11.135Z,98402.33
2017-07-26T16:07:38.617Z,98403.67
2017-07-26T16:10:06.265Z,98400.84
2017-07-26T16:12:33.727Z,98400.65
2017-07-26T16:15:01.296Z,98394.73
2017-07-26T16:17:29.373Z,98393.89
2017-07-26T16:19:56.847Z,98392.00
2017-07-26T16:22:24.329Z,98401.09
2017-07-26T16:24:51.844Z,98404.16
2017-07-26T16:27:19.345Z,98403.66
2017-07-26T16:29:46.806Z,98405.12
2017-07-26T16:32:14.315Z,98402.08
2017-07-26T16:34:41.811Z,98403.82
2017-07-26T16:37:10.212Z,98403.23
2017-07-26T16:39:37.746Z,98392.37
2017-07-26T16:42:05.219Z,98400.30
2017-07-26T16:44:32.735Z,98393.33
2017-07-26T16:47:00.208Z,98394.84
2017-07-26T16:49:27.736Z,98399.62
2017-07-26T16:51:55.197Z,98403.42
2017-07-26T16:54:23.557Z,98396.80
2017-07-26T16:56:51.023Z,98401.61
2017-07-26T16:59:18.623Z,98400.90
2017-07-26T17:01:46.106Z,98396.27
2017-07-26T17:04:13.558Z,98411.47
2017-07-26T17:06:41.059Z,98400.45
2017-07-26T17:09:08.516Z,98399.36
2017-07-26T17:11:36.005Z,98402.41
2017-07-26T17:14:03.470Z,98399.95
2017-07-26T17:16:30.921Z,98411.25
2017-07-26T17:18:58.417Z,98402.53
2017-07-26T17:21:25.876Z,98403.13
2017-07-26T17:23:53.369Z,98411.55
2017-07-26T17:26:20.859Z,98407.98
2017-07-26T17:28:49.287Z,98412.77
2017-07-26T17:31:17.459Z,98413.02
2017-07-26T17:33:44.915Z,98419.05
2017-07-26T17:36:12.411Z,98422.23
2017-07-26T17:38:39.862Z,98419.23
2017-07-26T17:41:07.364Z,98417.92
2017-07-26T17:43:34.823Z,98423.48
2017-07-26T17:46:02.582Z,98428.26
2017-07-26T17:48:30.041Z,98436.73
2017-07-26T17:50:57.512Z,98429.91
2017-07-26T17:53:25.031Z,98436.01
2017-07-26T17:55:52.489Z,98437.08
2017-07-26T17:58:19.957Z,98436.11
2017-07-26T18:00:48.297Z,98440.66
2017-07-26T18:03:15.786Z,98441.59
2017-07-26T18:05:43.264Z,98447.02
2017-07-26T18:08:10.747Z,98444.55
2017-07-26T18:10:38.237Z,98448.31
2017-07-26T18:13:05.681Z,98443.19
2017-07-26T18:15:33.183Z,98452.80
2017-07-26T18:18:00.634Z,98457.43
2017-07-26T18:20:28.285Z,98445.52
2017-07-26T18:22:55.745Z,98457.09
2017-07-26T18:25:23.243Z,98457.69
2017-07-26T18:27:50.717Z,98459.80
2017-07-26T18:30:18.420Z,98451.31
2017-07-26T18:32:46.278Z,98452.83
2017-07-26T18:35:13.771Z,98447.80
2017-07-26T18:37:41.261Z,98447.71
2017-07-26T18:40:08.750Z,98450.41
2017-07-26T18:42:36.290Z,98446.34
2017-07-26T18:45:03.755Z,98448.05
2017-07-26T18:47:31.349Z,98447.83
2017-07-26T18:49:58.839Z,98452.32
2017-07-26T18:52:26.313Z,98453.61
2017-07-26T18:54:54.249Z,98460.69
2017-07-26T18:57:21.703Z,98455.47
2017-07-26T18:59:49.505Z,98457.69
2017-07-26T19:02:16.997Z,98456.17
2017-07-26T19:04:44.487Z,98458.08
2017-07-26T19:07:11.972Z,98455.49
2017-07-26T19:09:39.464Z,98456.19
2017-07-26T19:12:06.911Z,98450.21
2017-07-26T19:14:34.715Z,98451.00
2017-07-26T19:17:02.258Z,98449.09
2017-07-26T19:19:29.748Z,98447.38
2017-07-26T19:21:57.218Z,98453.00
2017-07-26T19:24:25.378Z,98452.63
2017-07-26T19:26:52.863Z,98451.09
2017-07-26T19:29:20.460Z,98446.81
2017-07-26T19:31:48.252Z,98450.27
2017-07-26T19:34:15.777Z,98453.64
2017-07-26T19:36:44.495Z,98449.99
2017-07-26T19:39:11.983Z,98448.98
2017-07-26T19:41:39.716Z,98448.64
2017-07-26T19:44:07.447Z,98453.20
2017-07-26T19:46:34.910Z,98454.29
2017-07-26T19:49:02.386Z,98455.39
2017-07-26T19:51:29.837Z,98458.36
2017-07-26T19:53:57.302Z,98459.14
2017-07-26T19:56:24.778Z,98462.77
2017-07-26T19:58:52.401Z,98466.05
2017-07-26T20:01:19.901Z,98464.17
2017-07-26T20:03:47.390Z,98457.48
2017-07-26T20:06:14.887Z,98454.48
2017-07-26T20:08:42.706Z,98451.28
2017-07-26T20:11:10.171Z,98456.84
2017-07-26T20:13:37.631Z,98452.46
2017-07-26T20:16:05.114Z,98461.22
2017-07-26T20:18:32.570Z,98463.36
2017-07-26T20:21:00.296Z,98460.22
2017-07-26T20:23:28.375Z,98456.50
2017-07-26T20:25:55.853Z,98463.41
2017-07-26T20:28:23.306Z,98469.56
2017-07-26T20:30:50.970Z,98471.11
2017-07-26T20:33:18.459Z,98470.88
2017-07-26T20:35:45.966Z,98468.82
2017-07-26T20:38:13.466Z,98467.14
2017-07-26T20:40:40.932Z,98465.73
2017-07-26T20:43:08.426Z,98461.16
2017-07-26T20:45:35.892Z,98462.88
2017-07-26T20:48:03.390Z,98455.97
2017-07-26T20:50:30.956Z,98453.61
2017-07-26T20:52:58.496Z,98453.21
2017-07-26T20:55:26.068Z,98454.92
2017-07-26T20:57:53.562Z,98455.58
2017-07-26T21:00:21.107Z,98466.05
2017-07-26T21:02:49.566Z,98458.12
2017-07-26T21:05:17.206Z,98458.86
2017-07-26T21:07:45.377Z,98458.83
2017-07-26T21:10:12.893Z,98453.21
2017-07-26T21:12:40.516Z,98449.23
2017-07-26T21:15:08.046Z,98453.58
2017-07-26T21:17:35.513Z,98444.56
2017-07-26T21:20:03.004Z,98444.42
2017-07-26T21:22:30.454Z,98448.22
2017-07-26T21:24:57.915Z,98444.23
2017-07-26T21:27:25.397Z,98453.58
2017-07-26T21:29:52.872Z,98453.74
2017-07-26T21:32:20.487Z,98453.30
2017-07-26T21:34:47.944Z,98452.09
2017-07-26T21:37:15.412Z,98447.29
2017-07-26T21:39:43.050Z,98454.20
2017-07-26T21:42:10.535Z,98455.48
2017-07-26T21:44:38.366Z,98453.80
2017-07-26T21:47:05.824Z,98453.41
2017-07-26T21:49:33.339Z,98452.59
2017-07-26T21:52:00.810Z,98451.44
2017-07-26T21:54:28.452Z,98451.64
2017-07-26T21:56:55.914Z,98451.02
2017-07-26T21:59:23.389Z,98445.60
2017-07-26T22:01:50.837Z,98452.37
2017-07-26T22:04:18.318Z,98443.86
2017-07-26T22:06:45.825Z,98446.95
2017-07-26T22:09:13.273Z,98440.21
2017-07-26T22:11:40.780Z,98447.84
2017-07-26T22:14:08.914Z,98447.31
2017-07-26T22:16:36.434Z,98444.88
2017-07-26T22:19:03.922Z,98447.77
2017-07-26T22:21:31.418Z,98445.30
2017-07-26T22:23:58.866Z,98452.34
2017-07-26T22:26:26.967Z,98449.34
2017-07-26T22:28:54.860Z,98452.59
2017-07-26T22:31:22.931Z,98449.11
2017-07-26T22:33:50.413Z,98446.81
2017-07-26T22:36:18.354Z,98442.34
2017-07-26T22:38:45.838Z,98441.42
2017-07-26T22:41:13.293Z,98438.20
2017-07-26T22:43:40.782Z,98437.74
2017-07-26T22:46:08.242Z,98431.73
2017-07-26T22:48:35.748Z,98434.29
2017-07-26T22:51:03.908Z,98432.69
2017-07-26T22:53:31.448Z,98431.56
2017-07-26T22:55:58.941Z,98426.73
2017-07-26T22:58:26.437Z,98434.26
2017-07-26T23:00:53.893Z,98435.61
2017-07-26T23:03:21.587Z,98440.05
2017-07-26T23:05:49.233Z,98448.52
2017-07-26T23:08:16.811Z,98441.81
2017-07-26T23:10:44.336Z,98441.59
2017-07-26T23:13:11.794Z,98441.70
2017-07-26T23:15:39.291Z,98436.22
2017-07-26T23:18:07.523Z,98445.23
2017-07-26T23:20:34.989Z,98430.99
2017-07-26T23:23:02.477Z,98432.73
2017-07-26T23:25:29.959Z,98428.70
2017-07-26T23:27:57.424Z,98429.15
2017-07-26T23:30:24.923Z,98426.31
2017-07-26T23:32:52.387Z,98428.95
2017-07-26T23:35:20.161Z,98423.70
2017-07-26T23:37:47.646Z,98422.55
2017-07-26T23:40:15.118Z,98422.72
2017-07-26T23:42:42.590Z,98421.95
2017-07-26T23:45:10.089Z,98419.80
2017-07-26T23:47:37.565Z,98417.36
2017-07-26T23:50:05.090Z,98422.72
2017-07-26T23:52:32.535Z,98421.40
2017-07-26T23:55:00.021Z,98422.13
2017-07-26T23:57:27.482Z,98421.79
2017-07-26T23:59:54.965Z,98413.84
